createdAt,value
2018-03-20T00:02:07.233Z,4.95
2018-03-20T00:04:35.495Z,4.57
2018-03-20T00:07:03.759Z,3.78
2018-03-20T00:09:31.236Z,4.78
2018-03-20T00:11:59.500Z,5.00
2018-03-20T00:14:27.747Z,4.75
2018-03-20T00:16:55.250Z,5.30
2018-03-20T00:19:22.737Z,4.68
2018-03-20T00:21:50.254Z,4.50
2018-03-20T00:24:18.512Z,5.15
2018-03-20T00:26:47.495Z,4.03
2018-03-20T00:29:15.017Z,4.65
2018-03-20T00:31:42.502Z,4.28
2018-03-20T00:34:09.999Z,4.55
2018-03-20T00:36:38.251Z,4.32
2018-03-20T00:39:05.859Z,4.60
2018-03-20T00:41:33.335Z,4.68
2018-03-20T00:44:00.851Z,5.35
2018-03-20T00:46:28.339Z,4.47
2018-03-20T00:48:55.835Z,5.22
2018-03-20T00:51:23.336Z,4.78
2018-03-20T00:53:50.839Z,4.68
2018-03-20T00:56:18.348Z,4.65
2018-03-20T00:58:45.915Z,3.97
2018-03-20T01:01:13.430Z,4.57
2018-03-20T01:03:41.696Z,4.18
2018-03-20T01:06:09.175Z,5.15
2018-03-20T01:08:36.659Z,4.95
2018-03-20T01:11:04.156Z,4.65
2018-03-20T01:13:32.399Z,5.10
2018-03-20T01:15:59.895Z,4.60
2018-03-20T01:18:27.375Z,5.28
2018-03-20T01:20:54.871Z,5.22
2018-03-20T01:23:22.351Z,5.32
2018-03-20T01:25:49.868Z,5.18
2018-03-20T01:28:17.345Z,4.30
2018-03-20T01:30:44.844Z,4.87
2018-03-20T01:33:13.091Z,4.78
2018-03-20T01:35:40.590Z,5.60
2018-03-20T01:38:08.073Z,4.57
2018-03-20T01:40:35.568Z,4.97
2018-03-20T01:43:03.811Z,4.82
2018-03-20T01:45:31.307Z,5.50
2018-03-20T01:47:59.552Z,5.12
2018-03-20T01:50:27.044Z,4.78
2018-03-20T01:53:07.748Z,4.85
2018-03-20T01:55:35.243Z,5.00
2018-03-20T01:58:02.728Z,4.72
2018-03-20T02:00:31.000Z,4.62
2018-03-20T02:02:59.255Z,4.60
2018-03-20T02:05:26.731Z,5.12
2018-03-20T02:07:54.987Z,4.87
2018-03-20T02:10:22.467Z,5.43
2018-03-20T02:12:50.726Z,5.03
2018-03-20T02:15:18.967Z,4.60
2018-03-20T02:17:46.470Z,4.65
2018-03-20T02:20:14.719Z,4.62
2018-03-20T02:22:42.211Z,4.22
2018-03-20T02:25:09.688Z,4.50
2018-03-20T02:27:37.183Z,4.62
2018-03-20T02:30:04.659Z,4.55
2018-03-20T02:32:32.945Z,4.07
2018-03-20T02:35:00.434Z,4.50
2018-03-20T02:37:27.911Z,4.78
2018-03-20T02:39:55.404Z,4.20
2018-03-20T02:42:23.651Z,4.35
2018-03-20T02:44:51.139Z,4.40
2018-03-20T02:47:19.384Z,4.62
2018-03-20T02:49:46.879Z,4.50
2018-03-20T02:52:17.773Z,4.43
2018-03-20T02:54:45.260Z,4.70
2018-03-20T02:57:13.515Z,5.28
2018-03-20T02:59:41.027Z,4.62
2018-03-20T03:02:08.515Z,4.87
2018-03-20T03:04:36.007Z,4.85
2018-03-20T03:07:03.504Z,4.68
2018-03-20T03:09:30.995Z,5.00
2018-03-20T03:11:58.486Z,4.40
2018-03-20T03:14:25.987Z,4.45
2018-03-20T03:16:53.523Z,4.68
2018-03-20T03:19:20.994Z,5.25
2018-03-20T03:21:48.495Z,4.68
2018-03-20T03:24:16.739Z,5.43
2018-03-20T03:26:44.231Z,5.12
2018-03-20T03:29:12.479Z,5.53
2018-03-20T03:31:39.979Z,5.05
2018-03-20T03:34:07.464Z,5.65
2018-03-20T03:36:34.966Z,6.28
2018-03-20T03:39:02.434Z,5.60
2018-03-20T03:41:30.694Z,5.53
2018-03-20T03:43:58.967Z,5.95
2018-03-20T03:46:27.235Z,5.30
2018-03-20T03:48:54.719Z,5.60
2018-03-20T03:51:22.215Z,5.70
2018-03-20T03:53:49.693Z,5.12
2018-03-20T03:56:17.187Z,5.53
2018-03-20T03:58:44.667Z,6.15
2018-03-20T04:01:12.151Z,5.72
2018-03-20T04:03:40.434Z,6.18
2018-03-20T04:06:07.935Z,5.85
2018-03-20T04:08:35.443Z,5.78
2018-03-20T04:11:02.968Z,5.87
2018-03-20T04:13:30.468Z,6.05
2018-03-20T04:15:57.950Z,5.90
2018-03-20T04:18:26.215Z,6.00
2018-03-20T04:20:54.459Z,6.30
2018-03-20T04:23:21.956Z,6.85
2018-03-20T04:25:50.194Z,6.50
2018-03-20T04:28:17.705Z,6.27
2018-03-20T04:30:45.174Z,6.20
2018-03-20T04:33:12.671Z,6.33
2018-03-20T04:35:41.660Z,6.23
2018-03-20T04:38:09.156Z,5.73
2018-03-20T04:40:36.633Z,6.23
2018-03-20T04:43:04.126Z,5.93
2018-03-20T04:45:31.604Z,6.33
2018-03-20T04:47:59.086Z,6.23
2018-03-20T04:50:26.592Z,6.00
2018-03-20T04:52:54.066Z,6.37
2018-03-20T04:55:21.568Z,6.57
2018-03-20T04:57:49.042Z,7.33
2018-03-20T05:00:16.539Z,6.67
2018-03-20T05:02:44.791Z,6.57
2018-03-20T05:05:12.292Z,6.70
2018-03-20T05:07:39.780Z,7.63
2018-03-20T05:10:07.268Z,7.17
2018-03-20T05:12:36.251Z,8.03
2018-03-20T05:15:03.775Z,7.97
2018-03-20T05:17:31.266Z,8.53
2018-03-20T05:20:01.434Z,8.05
2018-03-20T05:22:34.739Z,7.43
2018-03-20T05:25:02.262Z,7.30
2018-03-20T05:27:30.511Z,7.80
2018-03-20T05:29:57.995Z,7.20
2018-03-20T05:32:26.256Z,6.83
2018-03-20T05:34:53.751Z,6.80
2018-03-20T05:37:21.254Z,6.57
2018-03-20T05:39:48.776Z,7.20
2018-03-20T05:42:16.267Z,7.10
2018-03-20T05:44:43.752Z,6.77
2018-03-20T05:50:29.728Z,7.33
2018-03-20T05:52:57.219Z,7.47
2018-03-20T05:55:25.730Z,7.47
2018-03-20T05:57:53.231Z,6.87
2018-03-20T06:00:20.725Z,7.70
2018-03-20T06:02:48.231Z,7.85
2018-03-20T06:05:15.710Z,8.53
2018-03-20T06:07:43.980Z,8.85
2018-03-20T06:10:11.471Z,7.72
2018-03-20T06:12:38.951Z,7.57
2018-03-20T06:15:06.911Z,7.83
2018-03-20T06:17:34.386Z,8.13
2018-03-20T06:20:01.879Z,8.20
2018-03-20T06:22:29.360Z,8.33
2018-03-20T06:24:56.854Z,7.40
2018-03-20T06:27:24.392Z,8.17
2018-03-20T06:29:52.651Z,8.27
2018-03-20T06:32:20.892Z,8.47
2018-03-20T06:34:48.391Z,9.23
2018-03-20T06:37:15.870Z,9.68
2018-03-20T06:39:43.536Z,9.85
2018-03-20T06:42:11.029Z,9.77
2018-03-20T06:44:38.533Z,7.80
2018-03-20T06:47:06.774Z,8.02
2018-03-20T06:49:34.294Z,8.07
2018-03-20T06:52:01.777Z,9.00
2018-03-20T06:54:29.311Z,8.37
2018-03-20T06:56:56.807Z,8.00
2018-03-20T06:59:25.057Z,8.70
2018-03-20T07:01:52.568Z,9.07
2018-03-20T07:04:20.051Z,8.17
2018-03-20T07:06:47.555Z,9.03
2018-03-20T07:09:15.795Z,8.50
2018-03-20T07:11:43.275Z,7.67
2018-03-20T07:14:11.585Z,8.70
2018-03-20T07:16:40.093Z,8.33
2018-03-20T07:19:07.599Z,9.47
2018-03-20T07:21:36.757Z,7.97
2018-03-20T07:24:04.303Z,10.90
2018-03-20T07:26:31.773Z,9.73
2018-03-20T07:28:59.267Z,9.17
2018-03-20T07:31:27.560Z,9.63
2018-03-20T07:33:55.051Z,10.47
2018-03-20T07:36:28.124Z,10.70
2018-03-20T07:38:55.629Z,10.20
2018-03-20T07:41:23.111Z,10.73
2018-03-20T07:43:50.602Z,10.53
2018-03-20T07:46:18.079Z,10.63
2018-03-20T07:48:46.343Z,10.40
2018-03-20T07:51:13.827Z,10.63
2018-03-20T07:53:41.338Z,10.83
2018-03-20T07:56:08.843Z,11.07
2018-03-20T07:58:36.314Z,11.90
2018-03-20T08:01:03.815Z,14.40
2018-03-20T08:03:31.340Z,13.67
2018-03-20T08:05:58.898Z,13.60
2018-03-20T08:08:26.374Z,13.43
2018-03-20T08:10:53.871Z,13.47
2018-03-20T08:13:21.417Z,15.40
2018-03-20T08:15:49.679Z,14.97
2018-03-20T08:18:18.113Z,12.40
2018-03-20T08:20:46.448Z,13.00
2018-03-20T08:23:21.827Z,13.13
2018-03-20T08:25:50.093Z,12.97
2018-03-20T08:28:18.339Z,11.90
2018-03-20T08:30:45.840Z,13.07
2018-03-20T08:33:14.084Z,13.47
2018-03-20T08:35:41.587Z,13.17
2018-03-20T08:38:09.082Z,10.97
2018-03-20T08:40:36.560Z,11.63
2018-03-20T08:43:04.066Z,13.07
2018-03-20T08:45:31.542Z,12.23
2018-03-20T08:47:59.031Z,11.97
2018-03-20T08:50:27.293Z,11.77
2018-03-20T08:52:54.811Z,12.27
2018-03-20T08:55:22.299Z,12.27
2018-03-20T08:57:49.793Z,12.30
2018-03-20T09:00:17.264Z,11.80
2018-03-20T09:02:44.746Z,11.57
2018-03-20T09:05:12.990Z,10.73
2018-03-20T09:07:40.476Z,11.07
2018-03-20T09:10:07.956Z,11.00
2018-03-20T09:12:35.469Z,10.47
2018-03-20T09:15:02.932Z,11.73
2018-03-20T09:17:30.427Z,11.30
2018-03-20T09:19:57.899Z,10.70
2018-03-20T09:22:25.395Z,10.30
2018-03-20T09:24:52.867Z,10.73
2018-03-20T09:27:20.332Z,9.77
2018-03-20T09:29:48.581Z,9.87
2018-03-20T09:32:16.047Z,9.73
2018-03-20T09:34:43.546Z,10.33
2018-03-20T09:37:11.023Z,13.13
2018-03-20T09:39:38.524Z,10.20
2018-03-20T09:42:06.759Z,7.73
2018-03-20T09:44:34.247Z,10.47
2018-03-20T09:47:01.716Z,12.67
2018-03-20T09:49:29.982Z,11.97
2018-03-20T09:51:58.223Z,9.77
2018-03-20T09:54:25.719Z,10.10
2018-03-20T09:56:53.183Z,7.43
2018-03-20T09:59:20.682Z,6.70
2018-03-20T10:01:48.155Z,8.23
2018-03-20T10:04:15.652Z,4.20
2018-03-20T10:06:43.895Z,5.23
2018-03-20T10:09:11.366Z,5.30
2018-03-20T10:11:39.623Z,6.90
2018-03-20T10:14:07.906Z,5.97
2018-03-20T10:16:35.351Z,3.13
2018-03-20T10:19:02.815Z,2.83
2018-03-20T10:21:30.302Z,3.27
2018-03-20T10:23:58.598Z,3.50
2018-03-20T10:26:26.083Z,4.30
2018-03-20T10:28:53.562Z,3.50
2018-03-20T10:31:21.047Z,3.37
2018-03-20T10:33:48.507Z,2.87
2018-03-20T10:36:15.987Z,2.90
2018-03-20T10:38:43.471Z,3.30
2018-03-20T10:41:10.951Z,3.57
2018-03-20T10:43:39.190Z,2.40
2018-03-20T10:46:06.671Z,3.10
2018-03-20T10:48:34.131Z,3.27
2018-03-20T10:51:02.367Z,2.80
2018-03-20T10:53:29.843Z,3.37
2018-03-20T10:55:57.362Z,3.20
2018-03-20T10:58:24.851Z,2.17
2018-03-20T11:00:52.318Z,5.17
2018-03-20T11:03:19.799Z,3.30
2018-03-20T11:05:48.027Z,2.50
2018-03-20T11:08:15.511Z,2.17
2018-03-20T11:10:42.977Z,2.77
2018-03-20T11:13:11.227Z,3.37
2018-03-20T11:15:38.695Z,2.70
2018-03-20T11:18:06.178Z,2.53
2018-03-20T11:20:34.416Z,2.00
2018-03-20T11:23:01.899Z,2.23
2018-03-20T11:25:30.127Z,2.03
2018-03-20T11:27:57.627Z,2.17
2018-03-20T11:30:25.856Z,2.20
2018-03-20T11:32:53.325Z,1.90
2018-03-20T11:35:20.815Z,2.07
2018-03-20T11:37:49.051Z,2.17
2018-03-20T11:40:16.531Z,2.20
2018-03-20T11:42:44.037Z,1.73
2018-03-20T11:45:11.507Z,1.47
2018-03-20T11:47:38.971Z,2.00
2018-03-20T11:50:06.452Z,2.50
2018-03-20T11:52:33.931Z,1.80
2018-03-20T11:55:02.178Z,1.43
2018-03-20T11:57:29.643Z,1.10
2018-03-20T11:59:57.127Z,0.80
2018-03-20T12:02:24.699Z,1.63
2018-03-20T12:04:52.226Z,1.20
2018-03-20T12:07:19.664Z,1.47
2018-03-20T12:09:48.937Z,1.47
2018-03-20T12:12:16.407Z,1.10
2018-03-20T12:14:43.887Z,1.13
2018-03-20T12:17:12.147Z,0.83
2018-03-20T12:19:39.626Z,1.37
2018-03-20T12:22:07.875Z,1.40
2018-03-20T12:24:35.339Z,1.10
2018-03-20T12:27:02.823Z,1.37
2018-03-20T12:29:30.308Z,1.07
2018-03-20T12:31:57.814Z,1.57
2018-03-20T12:34:25.271Z,1.13
2018-03-20T12:36:53.531Z,0.70
2018-03-20T12:39:20.991Z,1.00
2018-03-20T12:41:48.477Z,1.00
2018-03-20T12:44:16.706Z,1.20
2018-03-20T12:46:44.234Z,0.90
2018-03-20T12:49:11.695Z,0.97
2018-03-20T12:51:39.183Z,0.83
2018-03-20T12:54:06.668Z,0.87
2018-03-20T12:56:34.899Z,0.80
2018-03-20T12:59:02.391Z,1.03
2018-03-20T13:01:30.664Z,1.00
2018-03-20T13:03:58.121Z,0.70
2018-03-20T13:06:26.355Z,1.07
2018-03-20T13:08:53.845Z,0.70
2018-03-20T13:11:22.075Z,0.70
2018-03-20T13:13:49.557Z,0.80
2018-03-20T13:16:17.786Z,1.00
2018-03-20T13:18:45.533Z,1.00
2018-03-20T13:21:12.999Z,0.87
2018-03-20T13:23:41.247Z,0.80
2018-03-20T13:26:10.437Z,0.80
2018-03-20T13:28:37.944Z,0.40
2018-03-20T13:31:06.175Z,0.60
2018-03-20T13:33:33.647Z,1.20
2018-03-20T13:36:02.641Z,0.90
2018-03-20T13:38:30.143Z,0.60
2018-03-20T13:40:57.631Z,0.73
2018-03-20T13:43:25.095Z,0.97
2018-03-20T13:45:52.574Z,0.63
2018-03-20T13:48:20.038Z,0.83
2018-03-20T13:50:47.519Z,0.57
2018-03-20T13:53:31.727Z,1.00
2018-03-20T13:55:59.211Z,0.87
2018-03-20T13:58:26.675Z,0.70
2018-03-20T14:00:54.168Z,1.03
2018-03-20T14:03:22.404Z,1.37
2018-03-20T14:05:49.903Z,1.50
2018-03-20T14:08:18.139Z,1.00
2018-03-20T14:10:45.790Z,1.47
2018-03-20T14:13:13.318Z,0.80
2018-03-20T14:15:40.859Z,0.80
2018-03-20T14:18:08.323Z,0.87
2018-03-20T14:20:35.842Z,0.80
2018-03-20T14:23:04.068Z,0.90
2018-03-20T14:25:31.531Z,0.87
2018-03-20T14:27:59.778Z,0.67
2018-03-20T14:30:27.258Z,1.37
2018-03-20T14:32:54.738Z,1.13
2018-03-20T14:35:22.970Z,0.83
2018-03-20T14:37:50.454Z,1.20
2018-03-20T14:40:17.915Z,0.80
2018-03-20T14:42:45.396Z,0.90
2018-03-20T14:45:12.856Z,1.00
2018-03-20T14:47:41.106Z,0.90
2018-03-20T14:50:08.596Z,0.93
2018-03-20T14:52:36.083Z,1.10
2018-03-20T14:55:04.320Z,0.90
2018-03-20T14:57:32.567Z,1.37
2018-03-20T15:00:00.050Z,1.10
2018-03-20T15:02:28.313Z,0.70
2018-03-20T15:04:56.551Z,0.40
2018-03-20T15:07:24.033Z,0.97
2018-03-20T15:09:51.519Z,0.77
2018-03-20T15:12:19.001Z,1.40
2018-03-20T15:14:46.511Z,1.00
2018-03-20T15:17:14.003Z,0.53
2018-03-20T15:19:41.490Z,0.40
2018-03-20T15:22:08.958Z,0.50
2018-03-20T15:24:37.883Z,0.50
2018-03-20T15:27:05.371Z,0.87
2018-03-20T15:29:32.863Z,0.53
2018-03-20T15:32:01.112Z,0.90
2018-03-20T15:34:28.626Z,0.60
2018-03-20T15:36:56.087Z,1.00
2018-03-20T15:39:23.583Z,0.60
2018-03-20T15:41:51.043Z,0.60
2018-03-20T15:44:18.542Z,0.80
2018-03-20T15:46:46.008Z,1.10
2018-03-20T15:49:13.483Z,0.77
2018-03-20T15:51:40.976Z,2.33
2018-03-20T15:54:09.223Z,1.83
2018-03-20T15:56:36.703Z,1.30
2018-03-20T15:59:04.952Z,1.17
2018-03-20T16:01:32.431Z,0.80
2018-03-20T16:03:59.899Z,1.80
2018-03-20T16:06:27.412Z,1.70
2018-03-20T16:08:55.650Z,2.07
2018-03-20T16:11:23.140Z,3.10
2018-03-20T16:13:50.602Z,3.00
2018-03-20T16:16:18.867Z,2.07
2018-03-20T16:18:47.123Z,1.27
2018-03-20T16:21:14.611Z,1.30
2018-03-20T16:23:42.839Z,0.83
2018-03-20T16:26:11.100Z,1.90
2018-03-20T16:28:38.575Z,1.47
2018-03-20T16:31:06.046Z,1.50
2018-03-20T16:33:33.528Z,1.30
2018-03-20T16:36:01.762Z,1.30
2018-03-20T16:38:29.247Z,1.00
2018-03-20T16:40:56.715Z,0.90
2018-03-20T16:43:24.959Z,1.10
2018-03-20T16:45:52.501Z,0.80
2018-03-20T16:48:20.699Z,0.77
2018-03-20T16:50:48.163Z,0.90
2018-03-20T16:53:15.642Z,1.20
2018-03-20T16:55:43.111Z,1.00
2018-03-20T16:58:10.651Z,0.57
2018-03-20T17:00:38.066Z,0.73
2018-03-20T17:03:05.551Z,0.63
2018-03-20T17:05:33.784Z,2.03
2018-03-20T17:08:01.268Z,1.57
2018-03-20T17:10:28.734Z,1.20
2018-03-20T17:12:56.962Z,1.23
2018-03-20T17:15:24.459Z,1.10
2018-03-20T17:17:51.924Z,0.80
2018-03-20T17:20:19.407Z,1.07
2018-03-20T17:22:46.911Z,1.20
2018-03-20T17:25:14.374Z,0.63
2018-03-20T17:27:42.631Z,1.00
2018-03-20T17:30:10.115Z,0.73
2018-03-20T17:32:37.576Z,1.10
2018-03-20T17:35:05.839Z,0.83
2018-03-20T17:37:33.306Z,1.10
2018-03-20T17:40:01.554Z,0.77
2018-03-20T17:42:29.031Z,0.83
2018-03-20T17:44:56.511Z,0.90
2018-03-20T17:47:24.019Z,1.00
2018-03-20T17:49:51.503Z,1.03
2018-03-20T17:52:19.770Z,1.37
2018-03-20T17:54:47.259Z,1.30
2018-03-20T17:57:14.727Z,1.00
2018-03-20T17:59:42.196Z,1.03
2018-03-20T18:02:09.686Z,0.90
2018-03-20T18:04:37.147Z,1.20
2018-03-20T18:07:05.403Z,1.10
2018-03-20T18:09:32.871Z,1.70
2018-03-20T18:12:00.411Z,1.40
2018-03-20T18:14:27.886Z,1.30
2018-03-20T18:16:55.359Z,1.40
2018-03-20T18:19:22.845Z,1.23
2018-03-20T18:21:50.454Z,1.63
2018-03-20T18:24:17.949Z,1.20
2018-03-20T18:26:45.431Z,1.90
2018-03-20T18:29:12.931Z,2.10
2018-03-20T18:31:40.398Z,0.93
2018-03-20T18:34:08.627Z,1.23
2018-03-20T18:36:36.111Z,1.00
2018-03-20T18:39:03.597Z,1.10
2018-03-20T18:41:31.866Z,1.17
2018-03-20T18:44:00.110Z,1.10
2018-03-20T18:46:27.586Z,3.60
2018-03-20T18:48:55.185Z,2.00
2018-03-20T18:51:22.651Z,1.70
2018-03-20T18:53:50.162Z,1.60
2018-03-20T18:56:18.415Z,1.60
2018-03-20T18:58:45.882Z,1.50
2018-03-20T19:01:13.371Z,1.50
2018-03-20T19:03:40.858Z,1.80
2018-03-20T19:06:08.357Z,1.57
2018-03-20T19:08:36.600Z,1.70
2018-03-20T19:11:04.083Z,1.97
2018-03-20T19:13:31.566Z,1.50
2018-03-20T19:15:59.972Z,1.50
2018-03-20T19:18:27.462Z,1.30
2018-03-20T19:20:54.995Z,1.30
2018-03-20T19:23:22.488Z,1.33
2018-03-20T19:25:50.044Z,1.83
2018-03-20T19:28:18.398Z,1.53
2018-03-20T19:30:45.934Z,1.67
2018-03-20T19:33:14.223Z,1.23
2018-03-20T19:35:42.494Z,1.13
2018-03-20T19:38:11.495Z,1.57
2018-03-20T19:40:39.023Z,1.50
2018-03-20T19:43:06.527Z,1.60
2018-03-20T19:45:34.039Z,1.30
2018-03-20T19:48:01.578Z,1.90
2018-03-20T19:50:29.879Z,1.70
2018-03-20T19:52:57.448Z,1.53
2018-03-20T19:55:25.087Z,1.67
2018-03-20T19:57:52.656Z,1.20
2018-03-20T20:00:20.189Z,1.80
2018-03-20T20:02:47.746Z,1.53
2018-03-20T20:05:15.258Z,1.90
2018-03-20T20:07:43.544Z,1.73
2018-03-20T20:10:11.121Z,2.30
2018-03-20T20:12:38.609Z,2.53
2018-03-20T20:15:06.115Z,2.23
2018-03-20T20:17:34.398Z,2.10
2018-03-20T20:20:02.761Z,2.30
2018-03-20T20:22:31.052Z,1.90
2018-03-20T20:24:59.348Z,1.57
2018-03-20T20:27:26.863Z,1.90
2018-03-20T20:29:54.423Z,1.93
2018-03-20T20:32:21.955Z,2.17
2018-03-20T20:34:49.516Z,2.50
2018-03-20T20:37:17.020Z,2.50
2018-03-20T20:39:45.296Z,1.80
2018-03-20T20:42:12.766Z,1.60
2018-03-20T20:44:41.190Z,2.13
2018-03-20T20:47:08.700Z,1.77
2018-03-20T20:49:36.185Z,1.97
2018-03-20T20:52:03.657Z,1.70
2018-03-20T20:54:31.914Z,1.70
2018-03-20T20:56:59.404Z,1.67
2018-03-20T20:59:26.899Z,1.80
2018-03-20T21:01:54.398Z,1.40
2018-03-20T21:04:21.954Z,1.30
2018-03-20T21:06:49.463Z,1.30
2018-03-20T21:09:16.958Z,1.43
2018-03-20T21:11:44.464Z,1.83
2018-03-20T21:14:12.702Z,1.43
2018-03-20T21:16:41.192Z,1.40
2018-03-20T21:19:08.808Z,1.40
2018-03-20T21:21:36.284Z,1.30
2018-03-20T21:24:03.804Z,1.97
2018-03-20T21:26:31.292Z,1.77
2018-03-20T21:28:58.785Z,1.67
2018-03-20T21:31:26.295Z,1.37
2018-03-20T21:33:53.801Z,2.10
2018-03-20T21:36:22.125Z,2.30
2018-03-20T21:38:49.572Z,1.90
2018-03-20T21:41:17.082Z,2.43
2018-03-20T21:43:45.360Z,2.40
2018-03-20T21:46:13.635Z,1.80
2018-03-20T21:48:41.127Z,1.47
2018-03-20T21:51:08.641Z,1.50
2018-03-20T21:53:36.140Z,1.40
2018-03-20T21:56:03.655Z,1.50
2018-03-20T21:58:31.152Z,1.57
2018-03-20T22:00:58.663Z,1.50
2018-03-20T22:03:26.917Z,1.43
2018-03-20T22:05:54.413Z,1.50
2018-03-20T22:08:22.659Z,1.40
2018-03-20T22:10:50.134Z,1.43
2018-03-20T22:13:17.622Z,1.40
2018-03-20T22:15:45.087Z,1.43
2018-03-20T22:18:12.600Z,1.17
2018-03-20T22:20:40.090Z,1.97
2018-03-20T22:23:07.904Z,1.50
2018-03-20T22:25:35.383Z,1.50
2018-03-20T22:28:03.656Z,1.70
2018-03-20T22:30:31.163Z,1.50
2018-03-20T22:32:58.643Z,1.70
2018-03-20T22:35:26.118Z,1.50
2018-03-20T22:37:53.617Z,1.60
2018-03-20T22:40:21.095Z,1.70
2018-03-20T22:42:48.609Z,1.30
2018-03-20T22:45:16.884Z,1.47
2018-03-20T22:47:45.150Z,1.27
2018-03-20T22:50:13.403Z,1.10
2018-03-20T22:52:40.903Z,1.30
2018-03-20T22:55:08.378Z,1.23
2018-03-20T22:57:35.872Z,1.30
2018-03-20T23:00:03.363Z,1.20
2018-03-20T23:02:30.842Z,1.33
2018-03-20T23:04:58.334Z,1.40
2018-03-20T23:07:25.815Z,1.57
2018-03-20T23:09:53.317Z,1.53
2018-03-20T23:12:20.799Z,1.50
2018-03-20T23:14:48.295Z,1.50
2018-03-20T23:17:16.542Z,1.40
2018-03-20T23:19:44.043Z,1.73
2018-03-20T23:22:11.519Z,1.30
2018-03-20T23:24:39.068Z,1.73
2018-03-20T23:27:06.543Z,1.60
2018-03-20T23:29:34.050Z,1.83
2018-03-20T23:32:01.528Z,1.63
2018-03-20T23:34:29.016Z,1.50
2018-03-20T23:36:56.514Z,1.10
2018-03-20T23:39:24.756Z,1.60
2018-03-20T23:41:52.251Z,1.30
2018-03-20T23:44:20.507Z,2.00
2018-03-20T23:46:48.007Z,1.57
2018-03-20T23:49:15.493Z,1.90
2018-03-20T23:51:42.985Z,1.60
2018-03-20T23:54:11.231Z,1.90
2018-03-20T23:56:38.738Z,2.10
2018-03-20T23:59:06.224Z,1.90
